sensor_id;sensor_type;location;lat;lon;timestamp;temperature;humidity
16327;DHT22;34812;49.846;9.610;2023-03-16T00:00:49;-1.40;99.90
16327;DHT22;34812;49.846;9.610;2023-03-16T00:01:50;-1.40;99.90
16327;DHT22;34812;49.846;9.610;2023-03-16T00:02:52;-1.40;99.90
16327;DHT22;34812;49.846;9.610;2023-03-16T00:03:53;-1.40;99.90
16327;DHT22;34812;49.846;9.610;2023-03-16T00:04:55;-1.40;99.90
16327;DHT22;34812;49.846;9.610;2023-03-16T00:05:56;-1.40;99.90
16327;DHT22;34812;49.846;9.610;2023-03-16T00:06:58;-1.40;99.90
16327;DHT22;34812;49.846;9.610;2023-03-16T00:07:58;-1.40;99.90
16327;DHT22;34812;49.846;9.610;2023-03-16T00:09:00;-1.40;99.90
16327;DHT22;34812;49.846;9.610;2023-03-16T00:10:01;-1.40;99.90
16327;DHT22;34812;49.846;9.610;2023-03-16T00:11:04;-1.40;99.90
16327;DHT22;34812;49.846;9.610;2023-03-16T00:12:05;-1.30;99.90
16327;DHT22;34812;49.846;9.610;2023-03-16T00:13:08;-1.30;99.90
16327;DHT22;34812;49.846;9.610;2023-03-16T00:14:08;-1.30;99.90
16327;DHT22;34812;49.846;9.610;2023-03-16T00:15:12;-1.20;99.90
16327;DHT22;34812;49.846;9.610;2023-03-16T00:16:12;-1.20;99.90
16327;DHT22;34812;49.846;9.610;2023-03-16T00:17:18;-1.20;99.90
16327;DHT22;34812;49.846;9.610;2023-03-16T00:18:20;-1.10;99.90
16327;DHT22;34812;49.846;9.610;2023-03-16T00:19:22;-1.00;99.90
16327;DHT22;34812;49.846;9.610;2023-03-16T00:20:23;-1.00;99.90
16327;DHT22;34812;49.846;9.610;2023-03-16T00:21:25;-1.00;99.90
16327;DHT22;34812;49.846;9.610;2023-03-16T00:22:27;-0.90;99.90
16327;DHT22;34812;49.846;9.610;2023-03-16T00:23:29;-0.90;99.90
16327;DHT22;34812;49.846;9.610;2023-03-16T00:24:29;-0.90;99.90
16327;DHT22;34812;49.846;9.610;2023-03-16T00:25:31;-0.90;99.90
16327;DHT22;34812;49.846;9.610;2023-03-16T00:26:33;-0.80;99.90
16327;DHT22;34812;49.846;9.610;2023-03-16T00:27:34;-0.80;99.90
16327;DHT22;34812;49.846;9.610;2023-03-16T00:28:35;-0.80;99.90
16327;DHT22;34812;49.846;9.610;2023-03-16T00:29:38;-0.80;99.90
16327;DHT22;34812;49.846;9.610;2023-03-16T00:30:40;-0.80;99.90
16327;DHT22;34812;49.846;9.610;2023-03-16T00:31:48;-0.70;99.90
16327;DHT22;34812;49.846;9.610;2023-03-16T00:32:49;-0.70;99.90
16327;DHT22;34812;49.846;9.610;2023-03-16T00:33:53;-0.70;99.90
16327;DHT22;34812;49.846;9.610;2023-03-16T00:34:55;-0.70;99.90
16327;DHT22;34812;49.846;9.610;2023-03-16T00:35:56;-0.60;99.90
16327;DHT22;34812;49.846;9.610;2023-03-16T00:37:01;-0.60;99.90
16327;DHT22;34812;49.846;9.610;2023-03-16T00:38:03;-0.60;99.90
16327;DHT22;34812;49.846;9.610;2023-03-16T00:39:04;-0.60;99.90
16327;DHT22;34812;49.846;9.610;2023-03-16T00:40:07;-0.60;99.90
16327;DHT22;34812;49.846;9.610;2023-03-16T00:41:09;-0.60;99.90
16327;DHT22;34812;49.846;9.610;2023-03-16T00:42:16;-0.60;99.90
16327;DHT22;34812;49.846;9.610;2023-03-16T00:43:18;-0.50;99.90
16327;DHT22;34812;49.846;9.610;2023-03-16T00:44:19;-0.50;99.90
16327;DHT22;34812;49.846;9.610;2023-03-16T00:45:21;-0.50;99.90
16327;DHT22;34812;49.846;9.610;2023-03-16T00:46:25;-0.50;99.90
16327;DHT22;34812;49.846;9.610;2023-03-16T00:47:27;-0.50;99.90
16327;DHT22;34812;49.846;9.610;2023-03-16T00:48:30;-0.50;99.90
16327;DHT22;34812;49.846;9.610;2023-03-16T00:49:34;-0.50;99.90
16327;DHT22;34812;49.846;9.610;2023-03-16T00:50:36;-0.40;99.90
16327;DHT22;34812;49.846;9.610;2023-03-16T00:51:37;-0.40;99.90
16327;DHT22;34812;49.846;9.610;2023-03-16T00:52:39;-0.40;99.90
16327;DHT22;34812;49.846;9.610;2023-03-16T00:53:43;-0.40;99.90
16327;DHT22;34812;49.846;9.610;2023-03-16T00:54:46;-0.40;99.90
16327;DHT22;34812;49.846;9.610;2023-03-16T00:55:47;-0.40;99.90
16327;DHT22;34812;49.846;9.610;2023-03-16T00:56:49;-0.40;99.90
16327;DHT22;34812;49.846;9.610;2023-03-16T00:57:49;-0.40;99.90
16327;DHT22;34812;49.846;9.610;2023-03-16T00:58:51;-0.40;99.90
16327;DHT22;34812;49.846;9.610;2023-03-16T00:59:57;-0.40;99.90
16327;DHT22;34812;49.846;9.610;2023-03-16T01:00:58;-0.40;99.90
16327;DHT22;34812;49.846;9.610;2023-03-16T01:02:04;-0.50;99.90
16327;DHT22;34812;49.846;9.610;2023-03-16T01:03:06;-0.50;99.90
16327;DHT22;34812;49.846;9.610;2023-03-16T01:04:07;-0.40;99.90
16327;DHT22;34812;49.846;9.610;2023-03-16T01:05:11;-0.40;99.90
16327;DHT22;34812;49.846;9.610;2023-03-16T01:06:14;-0.40;99.90
16327;DHT22;34812;49.846;9.610;2023-03-16T01:07:16;-0.40;99.90
16327;DHT22;34812;49.846;9.610;2023-03-16T01:08:17;-0.40;99.90
16327;DHT22;34812;49.846;9.610;2023-03-16T01:09:19;-0.40;99.90
16327;DHT22;34812;49.846;9.610;2023-03-16T01:10:20;-0.40;99.90
16327;DHT22;34812;49.846;9.610;2023-03-16T01:11:22;-0.40;99.90
16327;DHT22;34812;49.846;9.610;2023-03-16T01:12:23;-0.40;99.90
16327;DHT22;34812;49.846;9.610;2023-03-16T01:13:25;-0.40;99.90
16327;DHT22;34812;49.846;9.610;2023-03-16T01:14:26;-0.40;99.90
16327;DHT22;34812;49.846;9.610;2023-03-16T01:15:28;-0.40;99.90
16327;DHT22;34812;49.846;9.610;2023-03-16T01:16:29;-0.40;99.90
16327;DHT22;34812;49.846;9.610;2023-03-16T01:17:34;-0.40;99.90
16327;DHT22;34812;49.846;9.610;2023-03-16T01:18:35;-0.40;99.90
16327;DHT22;34812;49.846;9.610;2023-03-16T01:19:37;-0.40;99.90
16327;DHT22;34812;49.846;9.610;2023-03-16T01:20:38;-0.30;99.90
16327;DHT22;34812;49.846;9.610;2023-03-16T01:21:40;-0.30;99.90
16327;DHT22;34812;49.846;9.610;2023-03-16T01:22:43;-0.30;99.90
16327;DHT22;34812;49.846;9.610;2023-03-16T01:23:45;-0.30;99.90
16327;DHT22;34812;49.846;9.610;2023-03-16T01:24:46;-0.30;99.90
16327;DHT22;34812;49.846;9.610;2023-03-16T01:25:48;-0.30;99.90
16327;DHT22;34812;49.846;9.610;2023-03-16T01:26:52;-0.30;99.90
16327;DHT22;34812;49.846;9.610;2023-03-16T01:27:55;-0.30;99.90
16327;DHT22;34812;49.846;9.610;2023-03-16T01:28:55;-0.30;99.90
16327;DHT22;34812;49.846;9.610;2023-03-16T01:29:57;-0.30;99.90
16327;DHT22;34812;49.846;9.610;2023-03-16T01:31:02;-0.30;99.90
16327;DHT22;34812;49.846;9.610;2023-03-16T01:32:05;-0.30;99.90
16327;DHT22;34812;49.846;9.610;2023-03-16T01:33:08;-0.30;99.90
16327;DHT22;34812;49.846;9.610;2023-03-16T01:34:10;-0.20;99.90
16327;DHT22;34812;49.846;9.610;2023-03-16T01:35:16;-0.20;99.90
16327;DHT22;34812;49.846;9.610;2023-03-16T01:36:19;-0.20;99.90
16327;DHT22;34812;49.846;9.610;2023-03-16T01:37:25;-0.20;99.90
16327;DHT22;34812;49.846;9.610;2023-03-16T01:38:40;-0.30;99.90
16327;DHT22;34812;49.846;9.610;2023-03-16T01:39:41;-0.30;99.90
16327;DHT22;34812;49.846;9.610;2023-03-16T01:40:43;-0.20;99.90
16327;DHT22;34812;49.846;9.610;2023-03-16T01:41:45;-0.20;99.90
16327;DHT22;34812;49.846;9.610;2023-03-16T01:42:52;-0.20;99.90
16327;DHT22;34812;49.846;9.610;2023-03-16T01:43:58;-0.20;99.90
16327;DHT22;34812;49.846;9.610;2023-03-16T01:45:02;-0.20;99.90
16327;DHT22;34812;49.846;9.610;2023-03-16T01:46:15;-0.20;99.90
16327;DHT22;34812;49.846;9.610;2023-03-16T01:47:20;-0.20;99.90
16327;DHT22;34812;49.846;9.610;2023-03-16T01:48:24;-0.20;99.90
16327;DHT22;34812;49.846;9.610;2023-03-16T01:49:28;-0.20;99.90
16327;DHT22;34812;49.846;9.610;2023-03-16T01:50:32;-0.20;99.90
16327;DHT22;34812;49.846;9.610;2023-03-16T01:51:37;-0.10;99.90
16327;DHT22;34812;49.846;9.610;2023-03-16T01:52:42;-0.10;99.90
16327;DHT22;34812;49.846;9.610;2023-03-16T01:53:44;-0.10;99.90
16327;DHT22;34812;49.846;9.610;2023-03-16T01:54:48;-0.20;99.90
16327;DHT22;34812;49.846;9.610;2023-03-16T01:55:51;-0.20;99.90
16327;DHT22;34812;49.846;9.610;2023-03-16T01:56:59;-0.20;99.90
16327;DHT22;34812;49.846;9.610;2023-03-16T01:58:02;-0.20;99.90
16327;DHT22;34812;49.846;9.610;2023-03-16T01:59:08;-0.20;99.90
16327;DHT22;34812;49.846;9.610;2023-03-16T02:00:13;-0.20;99.90
16327;DHT22;34812;49.846;9.610;2023-03-16T02:01:29;-0.20;99.90
16327;DHT22;34812;49.846;9.610;2023-03-16T02:02:32;-0.20;99.90
16327;DHT22;34812;49.846;9.610;2023-03-16T02:03:35;-0.20;99.90
16327;DHT22;34812;49.846;9.610;2023-03-16T02:04:49;-0.20;99.90
16327;DHT22;34812;49.846;9.610;2023-03-16T02:05:57;-0.20;99.90
16327;DHT22;34812;49.846;9.610;2023-03-16T02:07:00;-0.20;99.90
16327;DHT22;34812;49.846;9.610;2023-03-16T02:08:04;-0.20;99.90
16327;DHT22;34812;49.846;9.610;2023-03-16T02:09:07;-0.20;99.90
16327;DHT22;34812;49.846;9.610;2023-03-16T02:10:10;-0.20;99.90
16327;DHT22;34812;49.846;9.610;2023-03-16T02:11:12;-0.20;99.90
16327;DHT22;34812;49.846;9.610;2023-03-16T02:12:24;-0.20;99.90
16327;DHT22;34812;49.846;9.610;2023-03-16T02:13:28;-0.20;99.90
16327;DHT22;34812;49.846;9.610;2023-03-16T02:14:33;-0.20;99.90
16327;DHT22;34812;49.846;9.610;2023-03-16T02:15:34;-0.20;99.90
16327;DHT22;34812;49.846;9.610;2023-03-16T02:16:36;-0.20;99.90
16327;DHT22;34812;49.846;9.610;2023-03-16T02:17:38;-0.30;99.90
16327;DHT22;34812;49.846;9.610;2023-03-16T02:18:45;-0.30;99.90
16327;DHT22;34812;49.846;9.610;2023-03-16T02:19:52;-0.30;99.90
16327;DHT22;34812;49.846;9.610;2023-03-16T02:21:04;-0.30;99.90
16327;DHT22;34812;49.846;9.610;2023-03-16T02:22:07;-0.40;99.90
16327;DHT22;34812;49.846;9.610;2023-03-16T02:23:13;-0.30;99.90
16327;DHT22;34812;49.846;9.610;2023-03-16T02:24:19;-0.40;99.90
16327;DHT22;34812;49.846;9.610;2023-03-16T02:25:23;-0.40;99.90
16327;DHT22;34812;49.846;9.610;2023-03-16T02:26:30;-0.40;99.90
16327;DHT22;34812;49.846;9.610;2023-03-16T02:27:38;-0.40;99.90
16327;DHT22;34812;49.846;9.610;2023-03-16T02:28:46;-0.40;99.90
16327;DHT22;34812;49.846;9.610;2023-03-16T02:29:56;-0.40;99.90
16327;DHT22;34812;49.846;9.610;2023-03-16T02:31:00;-0.40;99.90
16327;DHT22;34812;49.846;9.610;2023-03-16T02:32:03;-0.40;99.90
16327;DHT22;34812;49.846;9.610;2023-03-16T02:33:05;-0.40;99.90
16327;DHT22;34812;49.846;9.610;2023-03-16T02:34:08;-0.30;99.90
16327;DHT22;34812;49.846;9.610;2023-03-16T02:35:10;-0.30;99.90
16327;DHT22;34812;49.846;9.610;2023-03-16T02:36:13;-0.30;99.90
16327;DHT22;34812;49.846;9.610;2023-03-16T02:37:15;-0.30;99.90
16327;DHT22;34812;49.846;9.610;2023-03-16T02:38:17;-0.50;99.90
16327;DHT22;34812;49.846;9.610;2023-03-16T02:39:23;-0.30;99.90
16327;DHT22;34812;49.846;9.610;2023-03-16T02:40:27;-0.30;99.90
16327;DHT22;34812;49.846;9.610;2023-03-16T02:41:30;-0.30;99.90
16327;DHT22;34812;49.846;9.610;2023-03-16T02:42:32;-0.30;99.90
16327;DHT22;34812;49.846;9.610;2023-03-16T02:43:35;-0.30;99.90
16327;DHT22;34812;49.846;9.610;2023-03-16T02:44:53;-0.40;99.90
16327;DHT22;34812;49.846;9.610;2023-03-16T02:45:59;-0.40;99.90
16327;DHT22;34812;49.846;9.610;2023-03-16T02:47:06;-0.40;99.90
16327;DHT22;34812;49.846;9.610;2023-03-16T02:48:13;-0.40;99.90
16327;DHT22;34812;49.846;9.610;2023-03-16T02:49:21;-0.40;99.90
16327;DHT22;34812;49.846;9.610;2023-03-16T02:50:24;-0.40;99.90
16327;DHT22;34812;49.846;9.610;2023-03-16T02:51:26;-0.40;99.90
16327;DHT22;34812;49.846;9.610;2023-03-16T02:52:28;-0.40;99.90
16327;DHT22;34812;49.846;9.610;2023-03-16T02:53:30;-0.40;99.90
16327;DHT22;34812;49.846;9.610;2023-03-16T02:54:33;-0.40;99.90
16327;DHT22;34812;49.846;9.610;2023-03-16T02:55:35;-0.30;99.90
16327;DHT22;34812;49.846;9.610;2023-03-16T02:56:35;-0.30;99.90
16327;DHT22;34812;49.846;9.610;2023-03-16T02:57:37;-0.30;99.90
16327;DHT22;34812;49.846;9.610;2023-03-16T02:58:43;-0.30;99.90
16327;DHT22;34812;49.846;9.610;2023-03-16T02:59:49;-0.30;99.90
16327;DHT22;34812;49.846;9.610;2023-03-16T03:00:53;-0.30;99.90
16327;DHT22;34812;49.846;9.610;2023-03-16T03:01:55;-0.30;99.90
16327;DHT22;34812;49.846;9.610;2023-03-16T03:02:55;-0.40;99.90
16327;DHT22;34812;49.846;9.610;2023-03-16T03:03:57;-0.30;99.90
16327;DHT22;34812;49.846;9.610;2023-03-16T03:04:59;-0.30;99.90
16327;DHT22;34812;49.846;9.610;2023-03-16T03:06:01;-0.30;99.90
16327;DHT22;34812;49.846;9.610;2023-03-16T03:07:07;-0.30;99.90
16327;DHT22;34812;49.846;9.610;2023-03-16T03:08:24;-0.30;99.90
16327;DHT22;34812;49.846;9.610;2023-03-16T03:09:26;-0.30;99.90
16327;DHT22;34812;49.846;9.610;2023-03-16T03:10:28;-0.30;99.90
16327;DHT22;34812;49.846;9.610;2023-03-16T03:11:31;-0.30;99.90
16327;DHT22;34812;49.846;9.610;2023-03-16T03:12:32;-0.30;99.90
16327;DHT22;34812;49.846;9.610;2023-03-16T03:13:36;-0.30;99.90
16327;DHT22;34812;49.846;9.610;2023-03-16T03:14:39;-0.30;99.90
16327;DHT22;34812;49.846;9.610;2023-03-16T03:15:40;-0.30;99.90
16327;DHT22;34812;49.846;9.610;2023-03-16T03:16:45;-0.30;99.90
16327;DHT22;34812;49.846;9.610;2023-03-16T03:17:48;-0.30;99.90
16327;DHT22;34812;49.846;9.610;2023-03-16T03:18:49;-0.30;99.90
16327;DHT22;34812;49.846;9.610;2023-03-16T03:19:52;-0.30;99.90
16327;DHT22;34812;49.846;9.610;2023-03-16T03:20:54;-0.30;99.90
16327;DHT22;34812;49.846;9.610;2023-03-16T03:21:56;-0.30;99.90
16327;DHT22;34812;49.846;9.610;2023-03-16T03:22:57;-0.30;99.90
16327;DHT22;34812;49.846;9.610;2023-03-16T03:23:59;-0.30;99.90
16327;DHT22;34812;49.846;9.610;2023-03-16T03:24:59;-0.30;99.90
16327;DHT22;34812;49.846;9.610;2023-03-16T03:26:03;-0.30;99.90
16327;DHT22;34812;49.846;9.610;2023-03-16T03:27:05;-0.30;99.90
16327;DHT22;34812;49.846;9.610;2023-03-16T03:28:10;-0.30;99.90
16327;DHT22;34812;49.846;9.610;2023-03-16T03:29:11;-0.30;99.90
16327;DHT22;34812;49.846;9.610;2023-03-16T03:30:15;-0.30;99.90
16327;DHT22;34812;49.846;9.610;2023-03-16T03:31:17;-0.30;99.90
16327;DHT22;34812;49.846;9.610;2023-03-16T03:32:21;-0.30;99.90
16327;DHT22;34812;49.846;9.610;2023-03-16T03:33:22;-0.30;99.90
16327;DHT22;34812;49.846;9.610;2023-03-16T03:34:25;-0.30;99.90
16327;DHT22;34812;49.846;9.610;2023-03-16T03:35:26;-0.30;99.90
16327;DHT22;34812;49.846;9.610;2023-03-16T03:36:28;-0.30;99.90
16327;DHT22;34812;49.846;9.610;2023-03-16T03:37:29;-0.30;99.90
16327;DHT22;34812;49.846;9.610;2023-03-16T03:38:31;-0.30;99.90
16327;DHT22;34812;49.846;9.610;2023-03-16T03:39:32;-0.30;99.90
16327;DHT22;34812;49.846;9.610;2023-03-16T03:40:34;-0.40;99.90
16327;DHT22;34812;49.846;9.610;2023-03-16T03:41:37;-0.30;99.90
16327;DHT22;34812;49.846;9.610;2023-03-16T03:42:41;-0.40;99.90
16327;DHT22;34812;49.846;9.610;2023-03-16T03:43:43;-0.40;99.90
16327;DHT22;34812;49.846;9.610;2023-03-16T03:44:50;-0.40;99.90
16327;DHT22;34812;49.846;9.610;2023-03-16T03:45:54;-0.40;99.90
16327;DHT22;34812;49.846;9.610;2023-03-16T03:46:57;-0.40;99.90
16327;DHT22;34812;49.846;9.610;2023-03-16T03:48:01;-0.40;99.90
16327;DHT22;34812;49.846;9.610;2023-03-16T03:49:03;-0.40;99.90
16327;DHT22;34812;49.846;9.610;2023-03-16T03:50:09;-0.40;99.90
16327;DHT22;34812;49.846;9.610;2023-03-16T03:51:20;-0.40;99.90
16327;DHT22;34812;49.846;9.610;2023-03-16T03:52:31;-0.40;99.90
16327;DHT22;34812;49.846;9.610;2023-03-16T03:53:32;-0.50;99.90
16327;DHT22;34812;49.846;9.610;2023-03-16T03:54:52;-0.40;99.90
16327;DHT22;34812;49.846;9.610;2023-03-16T03:55:52;-0.40;99.90
16327;DHT22;34812;49.846;9.610;2023-03-16T03:56:55;-0.30;99.90
16327;DHT22;34812;49.846;9.610;2023-03-16T03:57:56;-0.30;99.90
16327;DHT22;34812;49.846;9.610;2023-03-16T03:58:58;-0.30;99.90
16327;DHT22;34812;49.846;9.610;2023-03-16T04:00:26;-0.40;99.90
16327;DHT22;34812;49.846;9.610;2023-03-16T04:01:27;-0.40;99.90
16327;DHT22;34812;49.846;9.610;2023-03-16T04:02:28;-0.40;99.90
16327;DHT22;34812;49.846;9.610;2023-03-16T04:03:32;-0.40;99.90
16327;DHT22;34812;49.846;9.610;2023-03-16T04:04:33;-0.40;99.90
16327;DHT22;34812;49.846;9.610;2023-03-16T04:05:34;-0.40;99.90
16327;DHT22;34812;49.846;9.610;2023-03-16T04:06:35;-0.30;99.90
16327;DHT22;34812;49.846;9.610;2023-03-16T04:07:37;-0.30;99.90
16327;DHT22;34812;49.846;9.610;2023-03-16T04:08:41;-0.30;99.90
16327;DHT22;34812;49.846;9.610;2023-03-16T04:09:46;-0.30;99.90
16327;DHT22;34812;49.846;9.610;2023-03-16T04:10:57;-0.30;99.90
16327;DHT22;34812;49.846;9.610;2023-03-16T04:11:59;-0.30;99.90
16327;DHT22;34812;49.846;9.610;2023-03-16T04:13:00;-0.30;99.90
16327;DHT22;34812;49.846;9.610;2023-03-16T04:14:06;-0.30;99.90
16327;DHT22;34812;49.846;9.610;2023-03-16T04:15:08;-0.30;99.90
16327;DHT22;34812;49.846;9.610;2023-03-16T04:16:20;-0.30;99.90
16327;DHT22;34812;49.846;9.610;2023-03-16T04:17:25;-0.30;99.90
16327;DHT22;34812;49.846;9.610;2023-03-16T04:18:29;-0.40;99.90
16327;DHT22;34812;49.846;9.610;2023-03-16T04:19:39;-0.30;99.90
16327;DHT22;34812;49.846;9.610;2023-03-16T04:20:45;-0.40;99.90
16327;DHT22;34812;49.846;9.610;2023-03-16T04:21:51;-0.30;99.90
16327;DHT22;34812;49.846;9.610;2023-03-16T04:22:53;-0.30;99.90
16327;DHT22;34812;49.846;9.610;2023-03-16T04:23:58;-0.40;99.90
16327;DHT22;34812;49.846;9.610;2023-03-16T04:25:07;-0.40;99.90
16327;DHT22;34812;49.846;9.610;2023-03-16T04:26:10;-0.40;99.90
16327;DHT22;34812;49.846;9.610;2023-03-16T04:27:14;-0.40;99.90
16327;DHT22;34812;49.846;9.610;2023-03-16T04:28:14;-0.40;99.90
16327;DHT22;34812;49.846;9.610;2023-03-16T04:29:18;-0.40;99.90
16327;DHT22;34812;49.846;9.610;2023-03-16T04:30:19;-0.40;99.90
16327;DHT22;34812;49.846;9.610;2023-03-16T04:31:26;-0.40;99.90
16327;DHT22;34812;49.846;9.610;2023-03-16T04:32:27;-0.40;99.90
16327;DHT22;34812;49.846;9.610;2023-03-16T04:33:30;-0.40;99.90
16327;DHT22;34812;49.846;9.610;2023-03-16T04:34:32;-0.40;99.90
16327;DHT22;34812;49.846;9.610;2023-03-16T04:35:38;-0.40;99.90
16327;DHT22;34812;49.846;9.610;2023-03-16T04:36:39;-0.40;99.90
16327;DHT22;34812;49.846;9.610;2023-03-16T04:37:43;-0.40;99.90
16327;DHT22;34812;49.846;9.610;2023-03-16T04:38:44;-0.40;99.90
16327;DHT22;34812;49.846;9.610;2023-03-16T04:39:46;-0.40;99.90
16327;DHT22;34812;49.846;9.610;2023-03-16T04:40:47;-0.40;99.90
16327;DHT22;34812;49.846;9.610;2023-03-16T04:41:52;-0.40;99.90
16327;DHT22;34812;49.846;9.610;2023-03-16T04:42:56;-0.40;99.90
16327;DHT22;34812;49.846;9.610;2023-03-16T04:43:58;-0.40;99.90
16327;DHT22;34812;49.846;9.610;2023-03-16T04:44:59;-0.40;99.90
16327;DHT22;34812;49.846;9.610;2023-03-16T04:46:02;-0.40;99.90
16327;DHT22;34812;49.846;9.610;2023-03-16T04:47:04;-0.40;99.90
16327;DHT22;34812;49.846;9.610;2023-03-16T04:48:11;-0.40;99.90
16327;DHT22;34812;49.846;9.610;2023-03-16T04:49:12;-0.40;99.90
16327;DHT22;34812;49.846;9.610;2023-03-16T04:50:17;-0.40;99.90
16327;DHT22;34812;49.846;9.610;2023-03-16T04:51:25;-0.40;99.90
16327;DHT22;34812;49.846;9.610;2023-03-16T04:52:37;-0.40;99.90
16327;DHT22;34812;49.846;9.610;2023-03-16T04:53:38;-0.40;99.90
16327;DHT22;34812;49.846;9.610;2023-03-16T04:54:48;-0.50;99.90
16327;DHT22;34812;49.846;9.610;2023-03-16T04:55:50;-0.50;99.90
16327;DHT22;34812;49.846;9.610;2023-03-16T04:56:52;-0.50;99.90
16327;DHT22;34812;49.846;9.610;2023-03-16T04:58:03;-0.50;99.90
16327;DHT22;34812;49.846;9.610;2023-03-16T04:59:09;-0.50;99.90
16327;DHT22;34812;49.846;9.610;2023-03-16T05:00:24;-0.50;99.90
16327;DHT22;34812;49.846;9.610;2023-03-16T05:01:33;-0.50;99.90
16327;DHT22;34812;49.846;9.610;2023-03-16T05:02:37;-0.50;99.90
16327;DHT22;34812;49.846;9.610;2023-03-16T05:03:39;-0.50;99.90
16327;DHT22;34812;49.846;9.610;2023-03-16T05:04:40;-0.50;99.90
16327;DHT22;34812;49.846;9.610;2023-03-16T05:05:45;-0.50;99.90
16327;DHT22;34812;49.846;9.610;2023-03-16T05:06:48;-0.50;99.90
16327;DHT22;34812;49.846;9.610;2023-03-16T05:07:54;-0.50;99.90
16327;DHT22;34812;49.846;9.610;2023-03-16T05:08:55;-0.40;99.90
16327;DHT22;34812;49.846;9.610;2023-03-16T05:09:59;-0.40;99.90
16327;DHT22;34812;49.846;9.610;2023-03-16T05:11:00;-0.40;99.90
16327;DHT22;34812;49.846;9.610;2023-03-16T05:12:06;-0.40;99.90
16327;DHT22;34812;49.846;9.610;2023-03-16T05:13:07;-0.40;99.90
16327;DHT22;34812;49.846;9.610;2023-03-16T05:14:09;-0.40;99.90
16327;DHT22;34812;49.846;9.610;2023-03-16T05:15:23;-0.40;99.90
16327;DHT22;34812;49.846;9.610;2023-03-16T05:16:41;-0.40;99.90
16327;DHT22;34812;49.846;9.610;2023-03-16T05:17:43;-0.50;99.90
16327;DHT22;34812;49.846;9.610;2023-03-16T05:18:45;-0.40;99.90
16327;DHT22;34812;49.846;9.610;2023-03-16T05:19:47;-0.50;99.90
16327;DHT22;34812;49.846;9.610;2023-03-16T05:20:50;-0.50;99.90
16327;DHT22;34812;49.846;9.610;2023-03-16T05:21:54;-0.40;99.90
16327;DHT22;34812;49.846;9.610;2023-03-16T05:22:56;-0.40;99.90
16327;DHT22;34812;49.846;9.610;2023-03-16T05:24:05;-0.40;99.90
16327;DHT22;34812;49.846;9.610;2023-03-16T05:25:07;-0.40;99.90
16327;DHT22;34812;49.846;9.610;2023-03-16T05:26:09;-0.30;99.90
16327;DHT22;34812;49.846;9.610;2023-03-16T05:27:11;-0.30;99.90
16327;DHT22;34812;49.846;9.610;2023-03-16T05:28:13;-0.30;99.90
16327;DHT22;34812;49.846;9.610;2023-03-16T05:29:20;-0.30;99.90
16327;DHT22;34812;49.846;9.610;2023-03-16T05:30:23;-0.30;99.90
16327;DHT22;34812;49.846;9.610;2023-03-16T05:31:26;-0.20;99.90
16327;DHT22;34812;49.846;9.610;2023-03-16T05:32:31;-0.20;99.90
16327;DHT22;34812;49.846;9.610;2023-03-16T05:33:32;-0.20;99.90
16327;DHT22;34812;49.846;9.610;2023-03-16T05:34:40;-0.20;99.90
16327;DHT22;34812;49.846;9.610;2023-03-16T05:35:43;-0.20;99.90
16327;DHT22;34812;49.846;9.610;2023-03-16T05:36:47;-0.30;99.90
16327;DHT22;34812;49.846;9.610;2023-03-16T05:37:51;-0.30;99.90
16327;DHT22;34812;49.846;9.610;2023-03-16T05:38:54;-0.30;99.90
16327;DHT22;34812;49.846;9.610;2023-03-16T05:40:11;-0.30;99.90
16327;DHT22;34812;49.846;9.610;2023-03-16T05:41:17;-0.30;99.90
16327;DHT22;34812;49.846;9.610;2023-03-16T05:42:37;-0.30;99.90
16327;DHT22;34812;49.846;9.610;2023-03-16T05:43:39;-0.30;99.90
16327;DHT22;34812;49.846;9.610;2023-03-16T05:44:40;-0.20;99.90
16327;DHT22;34812;49.846;9.610;2023-03-16T05:46:04;-0.20;99.90
16327;DHT22;34812;49.846;9.610;2023-03-16T05:47:07;-0.20;99.90
16327;DHT22;34812;49.846;9.610;2023-03-16T05:48:12;-0.10;99.90
16327;DHT22;34812;49.846;9.610;2023-03-16T05:49:19;-0.10;99.90
16327;DHT22;34812;49.846;9.610;2023-03-16T05:50:21;-0.10;99.90
16327;DHT22;34812;49.846;9.610;2023-03-16T05:51:22;-0.10;99.90
16327;DHT22;34812;49.846;9.610;2023-03-16T05:52:26;-0.10;99.90
16327;DHT22;34812;49.846;9.610;2023-03-16T05:53:30;-0.10;99.90
16327;DHT22;34812;49.846;9.610;2023-03-16T05:54:39;-0.10;99.90
16327;DHT22;34812;49.846;9.610;2023-03-16T05:55:42;-0.10;99.90
16327;DHT22;34812;49.846;9.610;2023-03-16T05:56:46;-0.10;99.90
16327;DHT22;34812;49.846;9.610;2023-03-16T05:57:48;0.00;99.90
16327;DHT22;34812;49.846;9.610;2023-03-16T05:58:50;0.00;99.90
16327;DHT22;34812;49.846;9.610;2023-03-16T05:59:52;0.00;99.90
16327;DHT22;34812;49.846;9.610;2023-03-16T06:00:58;0.00;99.90
16327;DHT22;34812;49.846;9.610;2023-03-16T06:02:03;0.00;99.90
16327;DHT22;34812;49.846;9.610;2023-03-16T06:03:06;0.10;99.90
16327;DHT22;34812;49.846;9.610;2023-03-16T06:04:09;0.10;99.90
16327;DHT22;34812;49.846;9.610;2023-03-16T06:05:15;0.10;99.90
16327;DHT22;34812;49.846;9.610;2023-03-16T06:06:18;0.10;99.90
16327;DHT22;34812;49.846;9.610;2023-03-16T06:07:28;0.10;99.90
16327;DHT22;34812;49.846;9.610;2023-03-16T06:08:30;0.10;99.90
16327;DHT22;34812;49.846;9.610;2023-03-16T06:09:41;0.00;99.90
16327;DHT22;34812;49.846;9.610;2023-03-16T06:10:47;0.10;99.90
16327;DHT22;34812;49.846;9.610;2023-03-16T06:11:51;0.10;99.90
16327;DHT22;34812;49.846;9.610;2023-03-16T06:12:53;0.10;99.90
16327;DHT22;34812;49.846;9.610;2023-03-16T06:13:55;0.10;99.90
16327;DHT22;34812;49.846;9.610;2023-03-16T06:14:58;0.10;99.90
16327;DHT22;34812;49.846;9.610;2023-03-16T06:15:58;0.20;99.90
16327;DHT22;34812;49.846;9.610;2023-03-16T06:17:01;0.10;99.90
16327;DHT22;34812;49.846;9.610;2023-03-16T06:18:02;0.10;99.90
16327;DHT22;34812;49.846;9.610;2023-03-16T06:19:04;0.10;99.90
16327;DHT22;34812;49.846;9.610;2023-03-16T06:20:08;0.20;99.90
16327;DHT22;34812;49.846;9.610;2023-03-16T06:21:12;0.20;99.90
16327;DHT22;34812;49.846;9.610;2023-03-16T06:22:14;0.20;99.90
16327;DHT22;34812;49.846;9.610;2023-03-16T06:23:16;0.30;99.90
16327;DHT22;34812;49.846;9.610;2023-03-16T06:24:21;0.20;99.90
16327;DHT22;34812;49.846;9.610;2023-03-16T06:25:23;0.20;99.90
16327;DHT22;34812;49.846;9.610;2023-03-16T06:26:24;0.30;99.90
16327;DHT22;34812;49.846;9.610;2023-03-16T06:27:26;0.30;99.90
16327;DHT22;34812;49.846;9.610;2023-03-16T06:28:39;0.30;99.90
16327;DHT22;34812;49.846;9.610;2023-03-16T06:29:41;0.30;99.90
16327;DHT22;34812;49.846;9.610;2023-03-16T06:30:42;0.40;99.90
16327;DHT22;34812;49.846;9.610;2023-03-16T06:31:44;0.40;99.90
16327;DHT22;34812;49.846;9.610;2023-03-16T06:32:45;0.40;99.90
16327;DHT22;34812;49.846;9.610;2023-03-16T06:33:48;0.40;99.90
16327;DHT22;34812;49.846;9.610;2023-03-16T06:34:50;0.40;99.90
16327;DHT22;34812;49.846;9.610;2023-03-16T06:35:51;0.40;99.90
16327;DHT22;34812;49.846;9.610;2023-03-16T06:37:03;0.40;99.90
16327;DHT22;34812;49.846;9.610;2023-03-16T06:38:05;0.40;99.90
16327;DHT22;34812;49.846;9.610;2023-03-16T06:39:22;0.40;99.90
16327;DHT22;34812;49.846;9.610;2023-03-16T06:40:25;0.50;99.90
16327;DHT22;34812;49.846;9.610;2023-03-16T06:41:26;0.50;99.90
16327;DHT22;34812;49.846;9.610;2023-03-16T06:42:28;0.50;99.90
16327;DHT22;34812;49.846;9.610;2023-03-16T06:43:29;0.50;99.90
16327;DHT22;34812;49.846;9.610;2023-03-16T06:44:31;0.50;99.90